createdAt,value
2023-10-11T00:00:31.315Z,92.38
2023-10-11T00:05:38.406Z,92.55
2023-10-11T00:10:48.741Z,92.91
2023-10-11T00:15:52.914Z,92.94
2023-10-11T00:21:00.612Z,92.93
2023-10-11T00:26:03.302Z,93.42
2023-10-11T00:31:13.319Z,93.23
2023-10-11T00:36:17.400Z,93.32
2023-10-11T00:41:21.337Z,93.52
2023-10-11T00:46:45.668Z,93.89
2023-10-11T00:51:50.667Z,93.61
2023-10-11T00:56:53.230Z,93.63
2023-10-11T01:01:56.910Z,93.24
2023-10-11T01:06:58.766Z,93.04
2023-10-11T01:12:00.718Z,92.82
2023-10-11T01:17:03.651Z,92.65
2023-10-11T01:22:05.539Z,93.16
2023-10-11T01:27:07.507Z,92.62
2023-10-11T01:32:11.190Z,92.71
2023-10-11T01:37:13.117Z,92.64
2023-10-11T01:42:15.740Z,92.54
2023-10-11T01:47:20.612Z,92.19
2023-10-11T01:52:22.810Z,92.15
2023-10-11T01:57:27.272Z,92.15
2023-10-11T02:02:29.245Z,91.95
2023-10-11T02:07:32.928Z,91.90
2023-10-11T02:12:36.735Z,91.81
2023-10-11T02:17:39.030Z,91.35
2023-10-11T02:22:44.932Z,91.30
2023-10-11T02:27:50.664Z,91.12
2023-10-11T02:33:02.180Z,91.25
2023-10-11T02:38:10.592Z,90.97
2023-10-11T02:43:12.433Z,90.78
2023-10-11T02:48:19.525Z,90.47
2023-10-11T02:53:24.138Z,90.21
2023-10-11T02:58:27.558Z,90.21
2023-10-11T03:03:29.611Z,89.99
2023-10-11T03:08:31.588Z,89.53
2023-10-11T03:13:43.099Z,89.53
2023-10-11T03:18:47.848Z,89.06
2023-10-11T03:23:56.615Z,89.13
2023-10-11T03:29:04.925Z,88.64
2023-10-11T03:34:18.543Z,88.52
2023-10-11T03:39:34.642Z,88.37
2023-10-11T03:44:37.469Z,88.35
2023-10-11T03:49:52.340Z,88.01
2023-10-11T03:55:10.723Z,87.61
2023-10-11T04:00:29.875Z,87.22
2023-10-11T04:05:41.311Z,87.60
2023-10-11T04:10:47.497Z,86.96
2023-10-11T04:15:53.392Z,86.94
2023-10-11T04:21:15.911Z,86.51
2023-10-11T04:26:32.807Z,86.41
2023-10-11T04:31:55.267Z,86.02
2023-10-11T04:36:57.287Z,85.45
2023-10-11T04:42:00.678Z,85.30
2023-10-11T04:47:03.115Z,85.25
2023-10-11T04:52:14.424Z,84.66
2023-10-11T04:57:19.121Z,84.75
2023-10-11T05:02:34.201Z,84.59
2023-10-11T05:07:36.361Z,84.83
2023-10-11T05:12:43.312Z,84.59
2023-10-11T05:18:00.049Z,84.50
2023-10-11T05:23:06.770Z,84.60
2023-10-11T05:28:09.351Z,84.71
2023-10-11T05:33:32.546Z,84.57
2023-10-11T05:38:53.545Z,84.76
2023-10-11T05:44:14.495Z,84.40
2023-10-11T05:49:34.990Z,84.13
2023-10-11T05:54:36.890Z,83.46
2023-10-11T05:59:38.755Z,82.98
2023-10-11T06:04:44.329Z,82.47
2023-10-11T06:09:47.694Z,81.23
2023-10-11T06:14:53.667Z,80.44
2023-10-11T06:19:55.771Z,79.47
2023-10-11T06:25:00.228Z,78.38
2023-10-11T06:30:07.625Z,77.13
2023-10-11T06:35:17.939Z,73.18
2023-10-11T06:40:40.286Z,69.16
2023-10-11T06:45:43.862Z,66.35
2023-10-11T06:50:47.880Z,62.54
2023-10-11T06:55:51.644Z,61.12
2023-10-11T07:00:54.493Z,59.63
2023-10-11T07:06:00.575Z,57.35
2023-10-11T07:11:12.104Z,56.31
2023-10-11T07:16:14.389Z,55.45
2023-10-11T07:21:18.222Z,54.46
2023-10-11T07:26:24.556Z,53.06
2023-10-11T07:31:33.467Z,52.53
2023-10-11T07:36:40.376Z,50.98
2023-10-11T07:41:45.194Z,50.84
2023-10-11T07:46:47.441Z,50.45
2023-10-11T07:51:50.649Z,49.38
2023-10-11T07:56:59.970Z,48.83
2023-10-11T08:02:09.330Z,48.50
2023-10-11T08:07:18.068Z,47.52
2023-10-11T08:12:24.472Z,47.58
2023-10-11T08:17:31.242Z,47.25
2023-10-11T08:22:33.865Z,46.69
2023-10-11T08:27:36.530Z,46.78
2023-10-11T08:32:44.268Z,47.61
2023-10-11T08:37:54.146Z,47.52
2023-10-11T08:43:01.280Z,47.64
2023-10-11T08:48:10.306Z,47.70
2023-10-11T08:53:12.576Z,47.71
2023-10-11T08:58:25.067Z,48.39
2023-10-11T09:03:30.404Z,49.35
2023-10-11T09:08:34.738Z,49.87
2023-10-11T09:13:38.052Z,49.71
2023-10-11T09:19:00.303Z,50.48
2023-10-11T09:24:24.883Z,51.49
2023-10-11T09:29:31.612Z,52.35
2023-10-11T09:34:33.819Z,53.05
2023-10-11T09:39:35.749Z,53.79
2023-10-11T09:44:41.473Z,54.67
2023-10-11T09:49:44.546Z,55.04
2023-10-11T09:54:47.667Z,54.64
2023-10-11T10:00:15.765Z,54.35
2023-10-11T10:05:18.583Z,54.68
2023-10-11T10:10:27.125Z,54.34
2023-10-11T10:15:34.970Z,53.67
2023-10-11T10:20:43.046Z,54.13
2023-10-11T10:25:49.658Z,53.59
2023-10-11T10:31:13.503Z,54.27
2023-10-11T10:36:18.775Z,53.57
2023-10-11T10:41:24.535Z,53.42
2023-10-11T10:46:26.640Z,53.42
2023-10-11T10:51:39.191Z,53.35
2023-10-11T10:56:55.081Z,53.91
2023-10-11T11:01:57.248Z,54.63
2023-10-11T11:06:59.737Z,53.81
2023-10-11T11:12:19.650Z,53.61
2023-10-11T11:17:21.602Z,53.75
2023-10-11T11:22:23.685Z,53.70
2023-10-11T11:27:28.433Z,52.47
2023-10-11T11:32:42.490Z,51.52
2023-10-11T11:38:03.613Z,52.00
2023-10-11T11:43:06.092Z,52.21
2023-10-11T11:48:08.220Z,52.47
2023-10-11T11:53:10.418Z,52.72
2023-10-11T11:58:14.603Z,53.74
2023-10-11T12:03:17.077Z,54.18
2023-10-11T12:08:21.943Z,54.51
2023-10-11T12:13:29.665Z,54.70
2023-10-11T12:18:36.671Z,54.67
2023-10-11T12:23:46.963Z,54.62
2023-10-11T12:28:49.973Z,54.29
2023-10-11T12:33:51.850Z,54.22
2023-10-11T12:38:54.052Z,53.83
2023-10-11T12:43:55.911Z,54.25
2023-10-11T12:48:57.956Z,54.51
2023-10-11T12:53:59.900Z,54.72
2023-10-11T12:59:01.716Z,54.74
2023-10-11T13:04:10.153Z,55.26
2023-10-11T13:09:16.773Z,55.68
2023-10-11T13:14:20.312Z,56.25
2023-10-11T13:19:25.936Z,56.52
2023-10-11T13:24:28.420Z,56.59
2023-10-11T13:29:30.622Z,56.65
2023-10-11T13:34:35.232Z,56.34
2023-10-11T13:39:47.177Z,56.32
2023-10-11T13:44:49.274Z,56.20
2023-10-11T13:49:51.365Z,56.31
2023-10-11T13:54:53.503Z,56.91
2023-10-11T13:59:56.391Z,57.15
2023-10-11T14:04:58.723Z,57.51
2023-10-11T14:10:01.528Z,57.43
2023-10-11T14:15:09.123Z,57.51
2023-10-11T14:20:21.034Z,57.59
2023-10-11T14:25:25.894Z,57.91
2023-10-11T14:30:28.206Z,58.17
2023-10-11T14:35:33.132Z,58.57
2023-10-11T14:40:36.315Z,59.08
2023-10-11T14:45:41.668Z,59.77
2023-10-11T14:50:44.127Z,60.31
2023-10-11T14:55:46.080Z,60.44
2023-10-11T15:00:48.097Z,60.23
2023-10-11T15:05:50.003Z,59.67
2023-10-11T15:10:52.009Z,59.46
2023-10-11T15:15:53.981Z,59.41
2023-10-11T15:20:56.070Z,59.87
2023-10-11T15:25:59.767Z,60.07
2023-10-11T15:31:06.088Z,60.98
2023-10-11T15:36:08.861Z,61.47
2023-10-11T15:41:11.506Z,62.20
2023-10-11T15:46:13.713Z,62.95
2023-10-11T15:51:25.035Z,63.42
2023-10-11T15:56:27.714Z,64.21
2023-10-11T16:01:29.962Z,64.37
2023-10-11T16:06:31.898Z,65.18
2023-10-11T16:11:33.852Z,65.51
2023-10-11T16:16:40.238Z,65.65
2023-10-11T16:21:42.403Z,66.01
2023-10-11T16:26:44.459Z,66.04
2023-10-11T16:31:49.830Z,66.09
2023-10-11T16:36:51.746Z,65.95
2023-10-11T16:41:53.718Z,65.62
2023-10-11T16:46:55.817Z,65.55
2023-10-11T16:51:58.218Z,65.60
2023-10-11T16:57:00.041Z,65.80
2023-10-11T17:02:01.984Z,65.95
2023-10-11T17:07:08.602Z,66.01
2023-10-11T17:12:11.557Z,66.22
2023-10-11T17:17:14.100Z,66.65
2023-10-11T17:22:17.045Z,66.77
2023-10-11T17:27:19.135Z,67.01
2023-10-11T17:32:20.888Z,67.13
2023-10-11T17:37:23.083Z,67.63
2023-10-11T17:42:25.463Z,67.55
2023-10-11T17:47:29.757Z,67.69
2023-10-11T17:52:32.834Z,68.17
2023-10-11T17:57:39.439Z,68.58
2023-10-11T18:02:42.939Z,69.28
2023-10-11T18:07:49.562Z,69.71
2023-10-11T18:12:51.946Z,70.27
2023-10-11T18:17:57.954Z,71.01
2023-10-11T18:23:01.581Z,71.06
2023-10-11T18:28:06.337Z,71.77
2023-10-11T18:33:10.743Z,72.26
2023-10-11T18:38:12.668Z,72.89
2023-10-11T18:43:14.538Z,73.21
2023-10-11T18:48:16.356Z,73.39
2023-10-11T18:53:19.201Z,73.81
2023-10-11T18:58:21.043Z,74.41
2023-10-11T19:03:23.024Z,74.60
2023-10-11T19:08:25.827Z,74.86
2023-10-11T19:13:29.130Z,75.12
2023-10-11T19:18:31.010Z,75.61
2023-10-11T19:23:33.577Z,75.76
2023-10-11T19:28:35.632Z,76.03
2023-10-11T19:33:37.733Z,76.12
2023-10-11T19:38:39.705Z,76.36
2023-10-11T19:43:41.980Z,76.55
2023-10-11T19:48:44.282Z,76.68
2023-10-11T19:53:46.396Z,76.74
2023-10-11T19:58:48.979Z,76.96
2023-10-11T20:03:57.575Z,77.31
2023-10-11T20:09:03.349Z,77.40
2023-10-11T20:14:05.255Z,77.41
2023-10-11T20:19:07.129Z,77.47
2023-10-11T20:24:08.900Z,77.50
2023-10-11T20:29:10.802Z,77.27
2023-10-11T20:34:12.534Z,77.06
2023-10-11T20:39:17.772Z,76.92
2023-10-11T20:44:19.722Z,76.64
2023-10-11T20:49:21.752Z,76.43
2023-10-11T20:54:24.003Z,76.31
2023-10-11T20:59:26.130Z,76.14
2023-10-11T21:04:28.182Z,76.24
2023-10-11T21:09:32.000Z,76.13
2023-10-11T21:14:35.489Z,76.00
2023-10-11T21:19:37.318Z,76.06
2023-10-11T21:24:41.424Z,75.94
2023-10-11T21:29:43.678Z,75.83
2023-10-11T21:34:45.672Z,75.76
2023-10-11T21:39:48.218Z,75.77
2023-10-11T21:44:50.525Z,75.80
2023-10-11T21:49:52.450Z,75.76
2023-10-11T21:54:54.629Z,75.85
2023-10-11T21:59:56.837Z,75.89
2023-10-11T22:05:06.607Z,76.12
2023-10-11T22:10:11.677Z,76.08
2023-10-11T22:15:14.595Z,76.30
2023-10-11T22:20:17.390Z,76.16
2023-10-11T22:25:21.016Z,76.24
2023-10-11T22:30:24.757Z,76.28
2023-10-11T22:35:26.913Z,76.41
2023-10-11T22:40:29.406Z,76.21
2023-10-11T22:45:33.350Z,76.38
2023-10-11T22:50:35.282Z,76.34
2023-10-11T22:55:37.402Z,76.65
2023-10-11T23:00:39.429Z,76.66
2023-10-11T23:05:42.109Z,76.83
2023-10-11T23:10:46.434Z,76.60
2023-10-11T23:15:54.080Z,76.77
2023-10-11T23:20:59.868Z,77.08
2023-10-11T23:26:08.153Z,77.26
2023-10-11T23:31:11.599Z,77.20
2023-10-11T23:36:13.905Z,77.80
2023-10-11T23:41:16.092Z,77.64
2023-10-11T23:46:20.176Z,77.87
2023-10-11T23:51:23.070Z,78.15
2023-10-11T23:56:24.985Z,78.26
